Time;durP1;ratioP1;P1;durP2;ratioP2;P2;SDS_P1;SDS_P2;PMS_P1;PMS_P2;Temp;Humidity;BMP_temperature;BMP_pressure;BME280_temperature;BME280_humidity;BME280_pressure;Samples;Min_cycle;Max_cycle;Signal;HPM_P1;HPM_P2
2022/05/23 00:00:13;;;;;;;969.13;904.65;;;;;;;16.88;51.08;100922.59;691939;28;21454;-65
2022/05/23 00:00:35;;;;;;;972.08;907.33;;;;;;;16.86;51.16;100920.09;689995;28;92331;-66
2022/05/23 00:00:57;;;;;;;975.75;911.03;;;;;;;16.86;51.04;100922.00;691175;28;46346;-66
2022/05/23 00:01:18;;;;;;;977.25;912.42;;;;;;;16.85;51.10;100920.28;691900;28;19239;-66
2022/05/23 00:01:39;;;;;;;975.10;910.50;;;;;;;16.83;51.09;100927.84;692643;28;21493;-66
2022/05/23 00:02:01;;;;;;;964.08;899.88;;;;;;;16.83;51.08;100919.66;692210;28;22228;-66
2022/05/23 00:02:22;;;;;;;972.60;907.80;;;;;;;16.81;51.24;100929.94;690403;28;69252;-67
2022/05/23 00:02:43;;;;;;;977.22;912.13;;;;;;;16.80;51.65;100925.53;692528;28;22384;-67
2022/05/23 00:03:05;;;;;;;977.78;912.83;;;;;;;16.77;51.33;100924.09;692660;28;22440;-67
2022/05/23 00:03:27;;;;;;;972.15;907.45;;;;;;;16.74;51.31;100930.81;692701;28;23483;-67
2022/05/23 00:03:49;;;;;;;979.85;914.92;;;;;;;16.73;51.40;100926.41;691132;28;70351;-66
2022/05/23 00:04:10;;;;;;;993.88;928.30;;;;;;;16.70;51.30;100915.09;692935;28;1568;-67
2022/05/23 00:04:31;;;;;;;971.30;906.60;;;;;;;16.72;51.28;100932.91;692721;28;22247;-66
2022/05/23 00:04:53;;;;;;;952.10;888.10;;;;;;;16.72;51.74;100932.06;691793;28;46292;-66
2022/05/23 00:05:14;;;;;;;951.40;887.40;;;;;;;16.70;51.53;100932.28;691819;28;46206;-66
2022/05/23 00:05:35;;;;;;;952.63;888.63;;;;;;;16.69;51.76;100932.47;692743;28;22864;-67
2022/05/23 00:05:57;;;;;;;952.28;888.20;;;;;;;16.68;51.58;100930.81;691253;28;22539;-66
2022/05/23 00:06:19;;;;;;;962.65;898.10;;;;;;;16.66;51.78;100930.19;692421;28;22406;-66
2022/05/23 00:06:42;;;;;;;969.60;904.95;;;;;;;16.67;51.90;100931.88;690887;28;67599;-66
2022/05/23 00:07:09;;;;;;;986.13;920.80;;;;;;;16.67;51.49;100934.59;689206;28;113440;-65
2022/05/23 00:07:32;;;;;;;981.40;916.45;;;;;;;16.65;51.91;100934.81;689578;28;115038;-66
2022/05/23 00:07:54;;;;;;;960.60;896.78;;;;;;;16.66;51.73;100932.91;690519;28;69553;-66
2022/05/23 00:08:16;;;;;;;974.78;910.58;;;;;;;16.66;51.74;100938.38;691587;28;46300;-66
2022/05/23 00:08:37;;;;;;;1001.60;936.42;;;;;;;16.64;51.54;100935.84;691794;28;46603;-66
2022/05/23 00:08:58;;;;;;;992.92;928.17;;;;;;;16.66;51.83;100939.22;692482;28;22388;-66
2022/05/23 00:09:21;;;;;;;1001.92;936.85;;;;;;;16.65;51.65;100934.81;692584;28;22404;-67
2022/05/23 00:09:43;;;;;;;1009.90;944.40;;;;;;;16.67;51.83;100942.78;690992;28;69458;-67
2022/05/23 00:10:06;;;;;;;1005.55;940.25;;;;;;;16.64;51.66;100937.75;691497;28;46321;-67
2022/05/23 00:10:27;;;;;;;1010.25;944.20;;;;;;;16.63;51.79;100933.34;691924;28;44319;-67
2022/05/23 00:10:48;;;;;;;1017.47;951.13;;;;;;;16.62;52.08;100935.22;691718;28;46345;-66
2022/05/23 00:11:10;;;;;;;1020.75;954.25;;;;;;;16.61;51.79;100940.91;691725;28;22348;-66
2022/05/23 00:11:32;;;;;;;1015.28;949.00;;;;;;;16.60;51.71;100937.34;691855;28;46481;-66
2022/05/23 00:11:53;;;;;;;1028.63;961.75;;;;;;;16.59;51.84;100930.19;692510;28;22407;-66
2022/05/23 00:12:17;;;;;;;1037.95;970.78;;;;;;;16.60;51.54;100934.63;690237;28;90704;-66
2022/05/23 00:12:39;;;;;;;1028.68;961.65;;;;;;;16.62;52.08;100937.13;692174;28;21566;-67
2022/05/23 00:13:00;;;;;;;1023.45;956.90;;;;;;;16.60;51.91;100931.88;690621;28;69425;-67
2022/05/23 00:13:21;;;;;;;1019.50;953.08;;;;;;;16.61;51.94;100940.91;692419;28;21535;-67
2022/05/23 00:13:43;;;;;;;1001.78;936.53;;;;;;;16.60;51.87;100934.63;692560;28;21568;-66
2022/05/23 00:14:05;;;;;;;1005.42;939.97;;;;;;;16.56;51.82;100926.00;692695;28;7156;-68
2022/05/23 00:14:27;;;;;;;1002.25;937.15;;;;;;;16.52;52.13;100930.22;692969;28;1012;-67
2022/05/23 00:14:49;;;;;;;1003.50;938.50;;;;;;;16.53;51.83;100936.50;692565;28;22317;-66
2022/05/23 00:15:12;;;;;;;997.75;933.08;;;;;;;16.51;52.02;100938.59;692594;28;21263;-67
2022/05/23 00:15:34;;;;;;;999.15;934.13;;;;;;;16.49;52.41;100933.38;690111;28;92224;-66
2022/05/23 00:15:55;;;;;;;1070.07;998.58;;;;;;;16.44;52.50;100935.03;691132;28;44367;-66
2022/05/23 00:16:18;;;;;;;1113.28;999.90;;;;;;;16.43;52.42;100933.38;692639;28;23393;-67
2022/05/23 00:16:43;;;;;;;1104.03;999.90;;;;;;;16.42;52.49;100932.53;690964;28;69449;-66
2022/05/23 00:17:05;;;;;;;1113.95;999.90;;;;;;;16.43;52.59;100936.09;689954;28;92249;-66
2022/05/23 00:17:26;;;;;;;1120.95;999.90;;;;;;;16.43;52.30;100939.66;691012;28;68398;-67
2022/05/23 00:17:47;;;;;;;1124.70;999.90;;;;;;;16.43;52.32;100934.22;692775;28;22360;-66
2022/05/23 00:18:08;;;;;;;1126.88;999.90;;;;;;;16.41;52.66;100933.59;692731;28;22392;-66
2022/05/23 00:18:29;;;;;;;1091.53;999.90;;;;;;;16.42;52.27;100937.16;692720;28;22876;-66
2022/05/23 00:18:52;;;;;;;1064.50;996.03;;;;;;;16.38;52.46;100932.13;692743;28;22202;-66
2022/05/23 00:19:13;;;;;;;1023.22;957.28;;;;;;;16.37;52.73;100927.69;690957;28;68418;-66
2022/05/23 00:19:35;;;;;;;1032.40;966.10;;;;;;;16.39;52.43;100932.94;692631;28;23497;-66
2022/05/23 00:19:58;;;;;;;1028.63;962.67;;;;;;;16.37;52.29;100932.31;690045;28;92193;-66
2022/05/23 00:20:23;;;;;;;1021.28;955.58;;;;;;;16.36;52.70;100936.09;692254;28;22385;-66
2022/05/23 00:20:44;;;;;;;1023.42;957.55;;;;;;;16.32;52.57;100932.97;689410;28;116164;-66
2022/05/23 00:21:05;;;;;;;1017.30;951.53;;;;;;;16.32;52.90;100938.41;691682;28;21528;-66
2022/05/23 00:21:27;;;;;;;1034.07;967.55;;;;;;;16.31;52.67;100938.63;692659;28;17959;-66
2022/05/23 00:21:49;;;;;;;1033.00;966.78;;;;;;;16.30;52.67;100931.47;691659;28;45265;-66
2022/05/23 00:22:11;;;;;;;1047.85;980.78;;;;;;;16.29;52.87;100938.81;691905;28;46241;-66
2022/05/23 00:22:32;;;;;;;1042.50;975.38;;;;;;;16.26;53.07;100936.53;691297;28;44339;-66
2022/05/23 00:22:54;;;;;;;1021.55;955.60;;;;;;;16.23;52.85;100934.22;692810;28;21490;-66
2022/05/23 00:23:15;;;;;;;1031.45;965.00;;;;;;;16.25;52.76;100934.84;691644;28;47016;-66
2022/05/23 00:23:36;;;;;;;1100.53;999.90;;;;;;;16.23;53.25;100941.56;692710;28;22140;-66
2022/05/23 00:23:57;;;;;;;1141.43;999.90;;;;;;;16.20;53.09;100937.34;692775;28;21304;-66
2022/05/23 00:24:18;;;;;;;1144.75;999.90;;;;;;;16.22;53.20;100937.97;692215;28;22404;-66
2022/05/23 00:24:41;;;;;;;1149.22;999.90;;;;;;;16.19;53.16;100935.66;692333;28;22385;-66
2022/05/23 00:25:03;;;;;;;1151.78;999.90;;;;;;;16.22;52.85;100951.59;690159;28;90498;-66
2022/05/23 00:25:26;;;;;;;1151.18;999.90;;;;;;;16.24;52.99;100941.34;691518;28;45290;-66
2022/05/23 00:25:47;;;;;;;1149.75;999.90;;;;;;;16.26;52.94;100949.31;690912;28;67465;-66
2022/05/23 00:26:10;;;;;;;1140.53;999.90;;;;;;;16.28;52.81;100944.50;691411;28;21509;-66
2022/05/23 00:26:31;;;;;;;1133.93;999.90;;;;;;;16.29;52.63;100944.28;690618;28;69448;-66
2022/05/23 00:26:52;;;;;;;1138.90;999.90;;;;;;;16.27;52.70;100935.47;689535;28;21511;-66
2022/05/23 00:27:16;;;;;;;1135.07;999.90;;;;;;;16.28;53.03;100934.41;689265;28;23541;-66
2022/05/23 00:27:42;;;;;;;1142.60;999.90;;;;;;;16.31;52.64;100934.00;684332;28;101495;-66
2022/05/23 00:28:09;;;;;;;1138.05;999.90;;;;;;;16.31;52.76;100936.72;684141;28;162213;-66
2022/05/23 00:28:30;;;;;;;1135.35;999.90;;;;;;;16.31;52.95;100939.44;688831;28;46381;-66
2022/05/23 00:28:52;;;;;;;1131.95;999.90;;;;;;;16.30;52.91;100931.47;691667;28;22450;-66
2022/05/23 00:29:13;;;;;;;1134.88;999.90;;;;;;;16.31;52.77;100935.91;691058;28;46369;-66
2022/05/23 00:29:35;;;;;;;1134.53;999.90;;;;;;;16.29;53.05;100930.66;692046;28;23502;-66
2022/05/23 00:29:57;;;;;;;1145.47;999.90;;;;;;;16.30;53.02;100931.47;691069;28;66633;-66
2022/05/23 00:30:22;;;;;;;1152.40;999.90;;;;;;;16.28;52.60;100928.13;692103;28;21375;-66
2022/05/23 00:30:45;;;;;;;1105.00;999.90;;;;;;;16.32;52.90;100935.69;689330;28;114892;-65
2022/05/23 00:31:08;;;;;;;1029.90;963.65;;;;;;;16.33;52.69;100933.78;689191;28;92317;-65
2022/05/23 00:31:30;;;;;;;1024.88;958.80;;;;;;;16.33;52.93;100939.25;691146;28;45214;-66
2022/05/23 00:35:24;;;;;;;1066.57;998.33;;;;;;;16.35;52.58;100924.38;679895;28;100473;-66
2022/05/23 00:35:50;;;;;;;1061.00;993.00;;;;;;;16.35;52.87;100931.72;683693;28;45226;-66
2022/05/23 00:36:11;;;;;;;1065.28;996.97;;;;;;;16.35;52.51;100929.81;676657;28;136376;-66
2022/05/23 00:36:34;;;;;;;1068.90;999.75;;;;;;;16.33;52.45;100922.88;681510;29;22401;-66
2022/05/23 00:36:56;;;;;;;1065.00;996.75;;;;;;;16.34;52.76;100927.28;678996;29;92345;-66
2022/05/23 00:37:17;;;;;;;1059.43;991.22;;;;;;;16.32;52.60;100923.97;681916;28;44365;-66
2022/05/23 00:37:38;;;;;;;1064.18;995.97;;;;;;;16.31;52.69;100931.28;686517;28;23827;-66
2022/05/23 00:38:05;;;;;;;1057.95;989.95;;;;;;;16.29;52.60;100925.19;686718;28;115244;-66
2022/05/23 00:38:26;;;;;;;1067.90;999.33;;;;;;;16.29;52.72;100927.09;690566;28;45244;-66
2022/05/23 00:38:47;;;;;;;1065.88;997.55;;;;;;;16.27;52.87;100932.75;688461;28;22478;-65
2022/05/23 00:39:08;;;;;;;1062.40;994.22;;;;;;;16.19;52.98;100916.59;690253;28;13657;-66
2022/05/23 00:39:30;;;;;;;1062.47;994.22;;;;;;;16.23;52.76;100927.94;690200;28;45329;-66
2022/05/23 00:39:53;;;;;;;1060.68;992.47;;;;;;;16.24;52.73;100922.28;690487;28;46387;-66
2022/05/23 00:40:24;;;;;;;1063.97;995.65;;;;;;;16.23;52.70;100920.59;690589;28;45229;-66
2022/05/23 00:40:50;;;;;;;1063.85;995.50;;;;;;;16.24;52.80;100925.00;686987;28;137831;-66
2022/05/23 00:43:15;;;;;;;1041.60;974.58;;;;;;;16.22;52.92;100924.34;688258;28;137532;-66
2022/05/23 00:43:36;;;;;;;1121.35;999.90;;;;;;;16.25;52.98;100929.38;688324;28;136109;-66
2022/05/23 00:44:01;;;;;;;1159.50;999.90;;;;;;;16.24;52.93;100918.69;692654;28;22390;-66
2022/05/23 00:44:24;;;;;;;1156.95;999.90;;;;;;;16.25;52.83;100926.66;692884;28;14534;-66
2022/05/23 00:44:46;;;;;;;1149.38;999.90;;;;;;;16.25;52.68;100928.56;691169;28;69987;-65
2022/05/23 00:45:09;;;;;;;1152.20;999.90;;;;;;;16.23;53.04;100919.75;689838;28;69434;-66
2022/05/23 00:45:31;;;;;;;1155.80;999.90;;;;;;;16.24;52.93;100919.56;692872;28;1204;-66
2022/05/23 00:45:55;;;;;;;1154.15;999.90;;;;;;;16.28;52.94;100922.69;690917;28;45289;-66
2022/05/23 00:46:17;;;;;;;1141.65;999.90;;;;;;;16.28;52.66;100922.69;687509;28;134758;-67
2022/05/23 00:46:49;;;;;;;1155.68;999.90;;;;;;;16.28;52.98;100923.50;692507;28;22386;-66
2022/05/23 00:47:16;;;;;;;1155.88;999.90;;;;;;;16.27;52.83;100921.84;688162;28;137603;-66
2022/05/23 00:47:38;;;;;;;1132.78;999.90;;;;;;;16.30;52.93;100917.84;688280;28;138294;-66
2022/05/23 00:47:59;;;;;;;1145.07;999.90;;;;;;;16.29;53.03;100917.03;691537;28;47446;-66
2022/05/23 00:48:25;;;;;;;1139.75;999.90;;;;;;;16.29;52.73;100911.56;691571;28;45293;-67
2022/05/23 00:48:46;;;;;;;1121.25;999.90;;;;;;;16.31;52.51;100911.38;688527;28;92313;-66
2022/05/23 00:49:09;;;;;;;1091.78;999.90;;;;;;;16.29;52.88;100908.03;689126;28;22391;-67
2022/05/23 00:49:31;;;;;;;1048.60;980.92;;;;;;;16.31;52.81;100908.63;689143;28;68363;-67
2022/05/23 00:49:53;;;;;;;1032.63;965.90;;;;;;;16.32;52.66;100913.06;689343;28;69493;-66
2022/05/23 00:50:16;;;;;;;1025.95;959.65;;;;;;;16.31;52.43;100911.38;691511;28;45279;-67
2022/05/23 00:50:39;;;;;;;1025.65;959.65;;;;;;;16.32;52.73;100910.31;692483;28;43840;-66
2022/05/23 00:51:02;;;;;;;1027.30;961.20;;;;;;;16.30;52.61;100907.81;690455;28;93061;-66
2022/05/23 00:51:23;;;;;;;1016.67;950.88;;;;;;;16.31;52.88;100908.63;689914;28;46796;-67
2022/05/23 00:51:44;;;;;;;1034.78;968.22;;;;;;;16.30;52.95;100915.13;691676;28;45219;-67
2022/05/23 00:52:09;;;;;;;1054.10;986.35;;;;;;;16.28;52.70;100906.34;689583;28;23356;-67
2022/05/23 00:52:32;;;;;;;1050.82;982.92;;;;;;;16.26;52.91;100909.28;686587;28;92279;-66
2022/05/23 00:52:56;;;;;;;1053.85;985.85;;;;;;;16.24;52.92;100907.78;684209;28;90702;-67
2022/05/23 00:53:21;;;;;;;1057.95;989.97;;;;;;;16.24;53.11;100905.06;686135;28;69441;-66
2022/05/23 00:53:45;;;;;;;1058.97;990.90;;;;;;;16.20;53.06;100908.22;684698;28;138120;-66
2022/05/23 00:54:09;;;;;;;1056.47;988.65;;;;;;;16.19;52.94;100895.66;684329;28;138690;-67
2022/05/23 00:54:34;;;;;;;1062.57;994.47;;;;;;;16.17;52.98;100900.47;685589;28;22425;-66
2022/05/23 00:54:59;;;;;;;1064.70;996.38;;;;;;;16.15;53.36;100902.56;683386;28;91506;-67
2022/05/23 00:55:24;;;;;;;1053.95;986.03;;;;;;;16.12;53.34;100902.97;682458;28;115083;-66
2022/05/23 00:55:48;;;;;;;1053.45;985.63;;;;;;;16.10;53.41;100902.38;681174;28;113519;-67
2022/05/23 00:56:12;;;;;;;1047.57;980.10;;;;;;;16.10;53.34;100909.72;681572;28;113552;-66
2022/05/23 00:56:41;;;;;;;1027.93;961.60;;;;;;;16.08;53.55;100900.88;686151;28;69239;-66
2022/05/23 00:57:04;;;;;;;1039.18;972.42;;;;;;;16.07;53.46;100904.69;684169;28;138388;-66
2022/05/23 00:57:40;;;;;;;1043.38;976.42;;;;;;;16.06;53.65;100903.81;686592;28;68107;-66
2022/05/23 00:58:05;;;;;;;1032.75;966.30;;;;;;;16.03;53.49;100896.94;687968;28;58735;-66
2022/05/23 00:58:31;;;;;;;1040.00;972.97;;;;;;;16.06;53.66;100905.72;685838;28;115116;-66
2022/05/23 00:58:54;;;;;;;1063.47;995.13;;;;;;;16.06;53.40;100895.66;686448;28;115102;-66
2022/05/23 00:59:19;;;;;;;1059.70;991.60;;;;;;;16.06;53.38;100901.09;689403;28;92066;-66
2022/05/23 00:59:40;;;;;;;1061.93;993.75;;;;;;;16.06;53.62;100894.81;686563;28;115107;-66
2022/05/23 01:00:05;;;;;;;1057.90;989.90;;;;;;;16.06;53.44;100900.25;685759;28;45056;-66
2022/05/23 01:00:27;;;;;;;1058.85;990.83;;;;;;;16.06;53.46;100903.81;680882;28;114983;-66
2022/05/23 01:00:49;;;;;;;1059.40;991.30;;;;;;;16.03;53.71;100902.38;682774;28;45253;-67
2022/05/23 01:01:11;;;;;;;1064.78;996.40;;;;;;;16.03;53.37;100896.06;683556;28;21384;-66
2022/05/23 01:01:35;;;;;;;1059.47;991.25;;;;;;;16.01;53.83;100898.16;683359;28;69464;-66
2022/05/23 01:01:59;;;;;;;1054.90;986.38;;;;;;;16.03;53.38;100901.50;684497;28;113602;-66
2022/05/23 01:02:30;;;;;;;1062.00;993.40;;;;;;;16.02;53.49;100902.59;686180;28;138037;-67
2022/05/23 01:02:54;;;;;;;1047.30;979.58;;;;;;;16.01;53.50;100895.44;685706;28;20088;-66
2022/05/23 01:03:17;;;;;;;1103.57;999.90;;;;;;;16.03;53.68;100893.34;683993;28;91780;-66
2022/05/23 01:03:39;;;;;;;1121.43;999.90;;;;;;;16.03;53.76;100898.78;682452;28;69478;-66
2022/05/23 01:04:01;;;;;;;1118.22;999.90;;;;;;;16.02;53.68;100897.97;679934;28;45267;-66
2022/05/23 01:04:24;;;;;;;1138.78;999.90;;;;;;;16.02;53.81;100897.97;682903;28;42906;-66
2022/05/23 01:04:46;;;;;;;1151.78;999.90;;;;;;;16.01;53.80;100901.72;683534;28;21301;-67
2022/05/23 01:05:10;;;;;;;1159.78;999.90;;;;;;;15.99;53.68;100898.38;684382;28;46237;-67
2022/05/23 01:05:32;;;;;;;1163.63;999.90;;;;;;;15.97;53.75;100884.13;685674;28;92291;-66
2022/05/23 01:05:54;;;;;;;1165.70;999.90;;;;;;;15.99;53.90;100892.09;688325;28;46274;-66
2022/05/23 01:06:17;;;;;;;1155.40;999.90;;;;;;;15.99;53.82;100894.81;688527;28;66528;-66
2022/05/23 01:06:43;;;;;;;1160.55;999.90;;;;;;;15.91;53.70;100884.97;688076;28;136215;-66
2022/05/23 01:07:05;;;;;;;1106.65;999.90;;;;;;;15.97;53.84;100891.44;691295;28;46403;-66
2022/05/23 01:07:26;;;;;;;1036.30;969.15;;;;;;;15.94;53.78;100887.28;691339;28;44354;-66
2022/05/23 01:07:48;;;;;;;1037.75;970.75;;;;;;;15.96;53.72;100892.53;692220;28;21489;-66
2022/05/23 01:08:09;;;;;;;1027.60;961.03;;;;;;;15.95;53.98;100885.38;691794;28;44335;-67
2022/05/23 01:08:34;;;;;;;1019.42;953.28;;;;;;;15.96;54.12;100884.34;690008;28;92003;-66
2022/05/23 01:08:55;;;;;;;1035.72;968.90;;;;;;;15.96;53.88;100889.78;692508;28;23418;-67
2022/05/23 01:09:20;;;;;;;1035.57;968.78;;;;;;;15.95;53.97;100890.84;691301;28;45029;-66
2022/05/23 01:09:41;;;;;;;1036.10;969.15;;;;;;;15.94;54.10;100886.41;686572;28;115332;-66
2022/05/23 01:10:05;;;;;;;1038.65;971.53;;;;;;;15.94;53.89;100886.41;688602;28;46337;-66
2022/05/23 01:10:29;;;;;;;1035.45;968.78;;;;;;;15.94;53.89;100881.84;684989;28;67461;-67
2022/05/23 01:10:52;;;;;;;1021.78;956.15;;;;;;;15.95;54.04;100888.09;680444;28;115137;-67
2022/05/23 01:11:13;;;;;;;1023.92;958.13;;;;;;;15.94;53.77;100881.84;682195;28;26720;-66
2022/05/23 01:11:34;;;;;;;1033.70;967.38;;;;;;;15.96;54.17;100878.91;681765;28;21155;-66
2022/05/23 01:11:58;;;;;;;1051.68;984.13;;;;;;;15.97;53.71;100875.09;680830;29;45187;-66
2022/05/23 01:12:20;;;;;;;1046.15;978.75;;;;;;;15.96;53.73;100885.19;680738;28;69269;-66
2022/05/23 01:12:41;;;;;;;1022.50;956.30;;;;;;;15.96;53.88;100871.56;680590;28;44305;-66
2022/05/23 01:13:04;;;;;;;1058.43;990.47;;;;;;;15.98;53.98;100880.34;683007;28;44314;-66
2022/05/23 01:13:26;;;;;;;1068.20;999.45;;;;;;;15.99;53.93;100878.47;683702;28;43695;-66
2022/05/23 01:13:47;;;;;;;1065.75;997.15;;;;;;;16.00;54.12;100875.56;686331;28;46377;-67
2022/05/23 01:14:09;;;;;;;1031.03;964.83;;;;;;;16.00;53.99;100878.28;686505;28;46154;-66
2022/05/23 01:14:46;;;;;;;1021.97;956.17;;;;;;;15.98;53.72;100874.91;688304;28;23418;-66
2022/05/23 01:15:17;;;;;;;1050.38;983.08;;;;;;;15.99;53.88;100881.22;687175;28;136002;-67
2022/05/23 01:15:43;;;;;;;1061.72;993.53;;;;;;;15.96;53.66;100870.72;683833;28;137446;-67
2022/05/23 01:16:05;;;;;;;1056.80;988.80;;;;;;;15.94;53.60;100872.81;683580;28;114978;-66
2022/05/23 01:16:32;;;;;;;1058.97;990.85;;;;;;;15.95;54.06;100872.59;684200;28;137774;-66
2022/05/23 01:16:56;;;;;;;1059.85;991.65;;;;;;;15.95;54.02;100879.94;685745;28;92321;-66
2022/05/23 01:17:19;;;;;;;1057.70;989.67;;;;;;;15.90;53.99;100866.13;688251;28;22367;-66
2022/05/23 01:17:41;;;;;;;1058.32;990.22;;;;;;;15.93;54.05;100876.59;683720;28;68090;-66
2022/05/23 01:18:05;;;;;;;1058.05;989.97;;;;;;;15.92;54.10;100875.72;683836;28;83970;-66
2022/05/23 01:18:26;;;;;;;1058.45;990.22;;;;;;;15.93;53.81;100868.41;685782;28;45233;-66
2022/05/23 01:18:49;;;;;;;1049.22;981.70;;;;;;;15.94;53.71;100870.06;686812;28;21572;-66
2022/05/23 01:19:10;;;;;;;1053.38;985.55;;;;;;;15.92;53.95;100872.19;686417;28;69406;-66
2022/05/23 01:19:31;;;;;;;1052.60;984.80;;;;;;;15.94;53.72;100873.66;692629;28;22383;-66
2022/05/23 01:19:52;;;;;;;1056.60;988.63;;;;;;;15.95;53.98;100869.88;692937;28;23504;-67
2022/05/23 01:20:15;;;;;;;1053.80;985.92;;;;;;;15.97;53.79;100869.66;694584;28;23458;-66
2022/05/23 01:20:36;;;;;;;1059.22;991.08;;;;;;;15.98;53.76;100866.72;692870;28;67290;-67
2022/05/23 01:20:59;;;;;;;1057.10;989.08;;;;;;;15.97;53.83;100867.78;691288;28;22374;-66
2022/05/23 01:21:30;;;;;;;1058.47;990.38;;;;;;;16.00;53.58;100869.25;688635;28;1796;-66
2022/05/23 01:21:58;;;;;;;1060.55;992.45;;;;;;;16.00;54.02;100872.81;682046;28;138132;-66
2022/05/23 01:22:27;;;;;;;1070.03;999.78;;;;;;;16.01;53.55;100863.59;681993;28;137665;-67
2022/05/23 01:22:54;;;;;;;1104.85;999.90;;;;;;;16.02;53.65;100873.44;684283;28;97896;-66
2022/05/23 01:23:40;;;;;;;1112.18;999.90;;;;;;;16.04;53.64;100867.78;683338;28;160420;-66
2022/05/23 01:24:15;;;;;;;1101.63;999.90;;;;;;;16.02;53.59;100859.81;685254;28;137722;-67
2022/05/23 01:24:47;;;;;;;1057.10;989.13;;;;;;;16.01;53.57;100857.31;686541;28;133836;-66
2022/05/23 01:25:25;;;;;;;1022.50;956.60;;;;;;;15.98;53.69;100864.00;685393;28;137875;-67
2022/05/23 01:25:47;;;;;;;1023.40;957.60;;;;;;;16.00;53.82;100861.94;683077;28;138481;-66
2022/05/23 01:26:22;;;;;;;1022.88;957.22;;;;;;;16.00;53.96;100866.50;682774;28;129757;-67
2022/05/23 01:26:49;;;;;;;1041.05;974.22;;;;;;;15.96;53.73;100868.84;679967;28;115033;-67
2022/05/23 01:27:23;;;;;;;1049.18;981.72;;;;;;;15.95;53.69;100863.59;685328;28;70531;-66
2022/05/23 01:27:48;;;;;;;1045.90;978.42;;;;;;;15.94;53.76;100861.91;687724;28;37261;-66
2022/05/23 01:28:11;;;;;;;1058.55;990.50;;;;;;;15.94;53.81;100876.38;685904;28;44419;-67
2022/05/23 01:28:34;;;;;;;1055.80;987.90;;;;;;;15.89;54.10;100856.25;682304;28;68551;-67
2022/05/23 01:28:55;;;;;;;1046.78;979.28;;;;;;;15.91;53.95;100865.91;679003;28;69447;-68
2022/05/23 01:29:33;;;;;;;1053.07;985.30;;;;;;;15.90;54.03;100866.94;678173;28;135872;-66
2022/05/23 01:30:02;;;;;;;1055.65;987.75;;;;;;;15.89;54.01;100869.88;681113;28;137498;-66
2022/05/23 01:30:28;;;;;;;1053.93;986.03;;;;;;;15.87;54.17;100872.81;684334;28;137873;-67
2022/05/23 01:31:03;;;;;;;1058.07;990.08;;;;;;;15.83;54.33;100868.81;684688;28;137559;-66
2022/05/23 01:31:25;;;;;;;1057.75;989.85;;;;;;;15.78;54.16;100860.44;688072;28;90687;-67
2022/05/23 01:31:47;;;;;;;1041.65;974.85;;;;;;;15.78;54.24;100869.47;688559;28;22396;-67
2022/05/23 01:32:22;;;;;;;1038.30;971.83;;;;;;;15.71;54.64;100856.84;682260;28;137615;-67
2022/05/23 01:32:45;;;;;;;1048.43;980.97;;;;;;;15.73;54.35;100862.94;681668;28;92094;-67
2022/05/23 01:33:07;;;;;;;1119.30;999.90;;;;;;;15.69;54.43;100862.50;681610;28;23484;-67
2022/05/23 01:33:28;;;;;;;1155.57;999.90;;;;;;;15.66;54.48;100868.38;686165;28;46798;-67
2022/05/23 01:33:50;;;;;;;1144.72;999.90;;;;;;;15.70;54.50;100863.34;687032;28;22395;-67
2022/05/23 01:34:12;;;;;;;1125.60;999.90;;;;;;;15.67;54.83;100870.03;684115;28;46259;-67
2022/05/23 01:34:44;;;;;;;1144.35;999.90;;;;;;;15.65;54.62;100866.69;681767;28;137661;-66
2022/05/23 01:35:09;;;;;;;1136.60;999.90;;;;;;;15.65;54.87;100869.41;682964;28;115733;-67
2022/05/23 01:35:32;;;;;;;1131.63;999.90;;;;;;;15.62;55.01;100862.47;682006;28;92048;-67
2022/05/23 01:35:56;;;;;;;1112.22;999.90;;;;;;;15.61;54.96;100869.00;685281;28;45261;-67
2022/05/23 01:36:18;;;;;;;1100.70;999.90;;;;;;;15.61;55.11;100868.13;680040;28;112508;-66
2022/05/23 01:36:39;;;;;;;1110.45;999.90;;;;;;;15.61;55.08;100866.28;685886;28;22387;-67
2022/05/23 01:37:01;;;;;;;1098.65;999.90;;;;;;;15.60;54.81;100870.03;685414;28;23474;-66
2022/05/23 01:37:29;;;;;;;1068.45;999.53;;;;;;;15.58;55.01;100869.41;682290;28;137525;-66
2022/05/23 01:38:05;;;;;;;997.83;933.10;;;;;;;15.58;55.13;100872.13;680342;28;137460;-67
2022/05/23 01:38:45;;;;;;;1012.30;946.95;;;;;;;15.55;55.13;100869.81;683180;28;138353;-66
2022/05/23 01:39:15;;;;;;;1013.88;948.25;;;;;;;15.55;55.06;100861.66;685872;28;136459;-67
2022/05/23 01:39:37;;;;;;;1012.90;947.38;;;;;;;15.53;54.94;100857.44;689470;28;20963;-66
2022/05/23 01:39:58;;;;;;;1013.10;947.38;;;;;;;15.55;54.96;100871.69;690758;28;22260;-66
2022/05/23 01:40:39;;;;;;;1018.33;952.42;;;;;;;15.53;55.39;100862.91;686673;28;137290;-67
2022/05/23 01:41:04;;;;;;;1030.28;963.88;;;;;;;15.45;55.50;100853.03;685642;28;160747;-67
2022/05/23 01:41:26;;;;;;;1011.80;946.45;;;;;;;15.47;55.50;100854.53;686367;28;69380;-66
2022/05/23 01:41:54;;;;;;;1011.45;946.13;;;;;;;15.46;55.22;100857.44;683188;28;136316;-67
2022/05/23 01:42:16;;;;;;;1018.88;953.33;;;;;;;15.47;55.30;100857.25;681296;28;21994;-67
2022/05/23 01:42:37;;;;;;;1017.58;951.83;;;;;;;15.46;55.34;100862.88;681674;28;67447;-66
2022/05/23 01:42:59;;;;;;;1011.63;946.45;;;;;;;15.41;55.69;100852.63;680741;28;44337;-66
2022/05/23 01:43:21;;;;;;;1006.92;941.72;;;;;;;15.41;55.49;100858.06;683427;28;4020;-66
2022/05/23 01:43:58;;;;;;;1074.65;999.90;;;;;;;15.39;55.44;100860.16;682897;28;138033;-67
2022/05/23 01:44:23;;;;;;;1034.82;968.08;;;;;;;15.39;55.44;100860.16;688177;28;60202;-66
2022/05/23 01:44:57;;;;;;;1013.88;948.47;;;;;;;15.39;55.57;100860.16;680937;28;138045;-67
2022/05/23 01:45:22;;;;;;;1018.17;952.47;;;;;;;15.38;55.85;100849.47;685770;28;22466;-67
2022/05/23 01:45:44;;;;;;;1015.42;949.83;;;;;;;15.36;55.96;100857.00;681778;28;115083;-67
2022/05/23 01:46:25;;;;;;;1022.70;956.90;;;;;;;15.37;55.96;100858.69;683439;28;130007;-67
2022/05/23 01:46:58;;;;;;;1016.60;950.90;;;;;;;15.38;55.71;100863.09;687763;28;137738;-67
2022/05/23 01:47:28;;;;;;;1026.38;960.22;;;;;;;15.38;55.52;100852.22;687932;28;61465;-67
2022/05/23 01:47:53;;;;;;;1023.47;957.60;;;;;;;15.38;55.93;100850.31;687105;28;92238;-66
2022/05/23 01:48:15;;;;;;;1019.40;953.58;;;;;;;15.36;55.94;100855.13;684738;28;62777;-67
2022/05/23 01:48:36;;;;;;;1078.20;999.90;;;;;;;15.36;56.00;100848.81;685955;28;46420;-67
2022/05/23 01:48:58;;;;;;;1125.35;999.90;;;;;;;15.36;55.85;100849.69;683128;28;45262;-66
2022/05/23 01:49:20;;;;;;;1131.53;999.90;;;;;;;15.36;55.76;100848.81;681629;28;23434;-66
2022/05/23 01:49:41;;;;;;;1144.30;999.90;;;;;;;15.31;55.87;100846.72;678807;29;45229;-67
2022/05/23 01:50:19;;;;;;;1138.43;999.90;;;;;;;15.35;56.10;100853.44;677203;28;137370;-66
2022/05/23 01:50:45;;;;;;;1021.58;955.40;;;;;;;15.35;55.75;100852.63;678299;28;137937;-66
2022/05/23 01:51:07;;;;;;;1017.70;952.10;;;;;;;15.35;55.88;100850.72;683634;28;21529;-67
2022/05/23 01:51:28;;;;;;;1019.70;954.08;;;;;;;15.37;55.90;100853.25;686380;28;39734;-66
2022/05/23 01:51:49;;;;;;;1018.78;953.17;;;;;;;15.35;55.88;100853.44;686938;28;23492;-66